createdAt,value
2024-01-06T00:04:59.494Z,962.74
2024-01-06T00:10:30.944Z,962.87
2024-01-06T00:16:02.852Z,963.0
2024-01-06T00:21:34.720Z,962.98
2024-01-06T00:27:06.792Z,962.94
2024-01-06T00:32:40.304Z,962.95
2024-01-06T00:38:10.044Z,963.11
2024-01-06T00:43:41.693Z,962.99
2024-01-06T00:49:13.698Z,963.16
2024-01-06T00:54:49.942Z,962.56
2024-01-06T01:00:21.588Z,963.18
2024-01-06T01:05:53.095Z,963.4
2024-01-06T01:11:24.927Z,963.3
2024-01-06T01:16:56.786Z,963.24
2024-01-06T01:22:28.012Z,963.16
2024-01-06T01:27:59.756Z,963.3
2024-01-06T01:33:32.215Z,963.22
2024-01-06T01:39:03.413Z,962.88
2024-01-06T01:44:35.863Z,963.12
2024-01-06T01:50:06.678Z,963.15
2024-01-06T01:55:43.021Z,963.77
2024-01-06T02:01:14.801Z,963.18
2024-01-06T02:06:46.507Z,963.41
2024-01-06T02:12:18.112Z,963.43
2024-01-06T02:17:49.846Z,963.74
2024-01-06T02:23:21.379Z,963.49
2024-01-06T02:28:53.173Z,963.7
2024-01-06T02:34:24.990Z,962.95
2024-01-06T02:39:56.839Z,963.11
2024-01-06T02:45:28.832Z,963.29
2024-01-06T02:51:01.701Z,963.24
2024-01-06T02:56:38.607Z,963.5
2024-01-06T03:02:10.183Z,963.14
2024-01-06T03:07:41.756Z,963.24
2024-01-06T03:13:13.310Z,963.33
2024-01-06T03:18:45.428Z,963.4
2024-01-06T03:24:16.807Z,963.53
2024-01-06T03:29:48.430Z,963.82
2024-01-06T03:35:20.125Z,963.67
2024-01-06T03:40:52.721Z,963.31
2024-01-06T03:46:23.607Z,963.17
2024-01-06T03:51:55.532Z,963.44
2024-01-06T03:57:31.740Z,963.69
2024-01-06T04:03:03.601Z,963.92
2024-01-06T04:08:34.961Z,964.52
2024-01-06T04:14:06.571Z,964.45
2024-01-06T04:19:38.629Z,964.52
2024-01-06T04:25:10.244Z,965.1
2024-01-06T04:30:42.305Z,965.0
2024-01-06T04:36:13.906Z,964.71
2024-01-06T04:41:45.442Z,964.25
2024-01-06T04:47:17.467Z,964.66
2024-01-06T04:52:48.881Z,964.63
2024-01-06T04:58:24.731Z,964.75
2024-01-06T05:03:57.227Z,964.7
2024-01-06T05:09:28.725Z,964.49
2024-01-06T05:15:00.053Z,964.7
2024-01-06T05:20:31.614Z,964.81
2024-01-06T05:26:03.291Z,965.55
2024-01-06T05:31:35.845Z,965.61
2024-01-06T05:37:06.769Z,965.01
2024-01-06T05:42:39.205Z,964.79
2024-01-06T05:48:11.221Z,965.05
2024-01-06T05:53:41.864Z,964.5
2024-01-06T05:59:20.270Z,964.84
2024-01-06T06:04:51.958Z,964.54
2024-01-06T06:10:24.083Z,964.45
2024-01-06T06:15:55.365Z,964.39
2024-01-06T06:21:27.283Z,964.61
2024-01-06T06:26:58.638Z,964.9
2024-01-06T06:32:30.802Z,965.22
2024-01-06T06:38:02.538Z,964.91
2024-01-06T06:43:33.855Z,964.56
2024-01-06T06:49:06.638Z,965.51
2024-01-06T06:54:37.969Z,965.45
2024-01-06T07:00:13.738Z,965.54
2024-01-06T07:05:45.535Z,965.75
2024-01-06T07:11:16.821Z,965.95
2024-01-06T07:16:48.816Z,966.15
2024-01-06T07:22:20.776Z,966.28
2024-01-06T07:27:56.790Z,966.2
2024-01-06T07:33:24.574Z,966.0
2024-01-06T07:38:55.790Z,966.94
2024-01-06T07:44:28.027Z,966.49
2024-01-06T07:49:59.775Z,967.03
2024-01-06T07:55:30.794Z,966.85
2024-01-06T08:01:07.437Z,967.19
2024-01-06T08:06:38.993Z,967.92
2024-01-06T08:12:10.236Z,968.03
2024-01-06T08:17:42.586Z,967.12
2024-01-06T08:23:13.859Z,967.13
2024-01-06T08:28:45.500Z,967.94
2024-01-06T08:34:17.720Z,968.07
2024-01-06T08:39:49.766Z,967.49
2024-01-06T08:45:20.847Z,967.08
2024-01-06T08:50:52.531Z,967.31
2024-01-06T08:56:24.383Z,967.33
2024-01-06T09:02:02.345Z,967.19
2024-01-06T09:07:33.867Z,966.89
2024-01-06T09:13:06.531Z,967.02
2024-01-06T09:18:38.016Z,967.65
2024-01-06T09:24:09.019Z,967.98
2024-01-06T09:29:40.693Z,967.18
2024-01-06T09:35:12.792Z,967.91
2024-01-06T09:40:44.303Z,967.46
2024-01-06T09:46:15.987Z,968.71
2024-01-06T09:51:47.716Z,967.75
2024-01-06T09:57:20.030Z,968.36
2024-01-06T10:02:55.682Z,968.23
2024-01-06T10:08:27.465Z,968.28
2024-01-06T10:13:58.921Z,967.86
2024-01-06T10:19:31.193Z,967.91
2024-01-06T10:25:02.915Z,967.95
2024-01-06T10:30:34.484Z,967.36
2024-01-06T10:36:05.828Z,967.44
2024-01-06T10:41:38.100Z,967.59
2024-01-06T10:47:09.333Z,967.83
2024-01-06T10:52:41.946Z,967.91
2024-01-06T10:58:13.187Z,968.17
2024-01-06T11:03:49.510Z,967.92
2024-01-06T11:10:03.541Z,967.58
2024-01-06T11:14:52.493Z,968.36
2024-01-06T11:20:24.026Z,967.61
2024-01-06T11:25:55.815Z,968.02
2024-01-06T11:31:27.690Z,968.1
2024-01-06T11:36:59.567Z,967.71
2024-01-06T11:42:31.247Z,967.77
2024-01-06T11:48:04.025Z,967.39
2024-01-06T11:53:34.706Z,967.8
2024-01-06T11:59:06.195Z,968.34
2024-01-06T12:04:43.224Z,968.97
2024-01-06T12:15:45.894Z,968.87
2024-01-06T12:21:17.825Z,968.12
2024-01-06T12:26:49.538Z,968.51
2024-01-06T12:32:21.167Z,968.93
2024-01-06T12:37:52.834Z,968.73
2024-01-06T12:43:24.581Z,968.81
2024-01-06T12:48:56.574Z,968.04
2024-01-06T12:54:27.831Z,967.98
2024-01-06T12:59:59.884Z,968.32
2024-01-06T13:05:35.653Z,968.1
2024-01-06T13:11:07.250Z,968.21
2024-01-06T13:16:39.314Z,967.75
2024-01-06T13:22:10.970Z,968.16
2024-01-06T13:27:42.536Z,968.22
2024-01-06T13:33:14.611Z,968.71
2024-01-06T13:38:46.207Z,968.53
2024-01-06T13:44:18.018Z,968.33
2024-01-06T13:49:50.133Z,968.23
2024-01-06T13:55:21.144Z,968.49
2024-01-06T14:00:52.933Z,969.18
2024-01-06T14:06:31.514Z,968.76
2024-01-06T14:12:03.185Z,968.26
2024-01-06T14:17:34.702Z,968.23
2024-01-06T14:23:06.153Z,969.29
2024-01-06T14:28:38.468Z,969.24
2024-01-06T14:34:10.070Z,969.5
2024-01-06T14:39:41.286Z,969.74
2024-01-06T14:45:13.470Z,969.22
2024-01-06T14:50:44.678Z,970.19
2024-01-06T14:56:16.687Z,970.55
2024-01-06T15:01:48.548Z,970.33
2024-01-06T15:07:24.269Z,969.92
2024-01-06T15:12:56.512Z,969.34
2024-01-06T15:18:29.197Z,970.01
2024-01-06T15:24:00.145Z,970.63
2024-01-06T15:29:31.123Z,970.55
2024-01-06T15:35:03.431Z,970.62
2024-01-06T15:40:35.377Z,970.51
2024-01-06T15:46:06.835Z,970.72
2024-01-06T15:51:38.386Z,970.98
2024-01-06T15:57:09.831Z,970.81
2024-01-06T16:02:42.963Z,970.35
2024-01-06T16:08:17.572Z,970.73
2024-01-06T16:13:50.488Z,970.06
2024-01-06T16:19:21.639Z,970.44
2024-01-06T16:24:52.731Z,970.47
2024-01-06T16:30:24.977Z,970.26
2024-01-06T16:35:56.230Z,970.53
2024-01-06T16:41:28.019Z,970.68
2024-01-06T16:46:59.775Z,970.88
2024-01-06T16:52:31.614Z,971.08
2024-01-06T16:58:03.397Z,971.12
2024-01-06T17:03:34.877Z,970.91
2024-01-06T17:09:10.918Z,970.87
2024-01-06T17:14:42.741Z,971.17
2024-01-06T17:20:14.287Z,970.59
2024-01-06T17:25:45.926Z,971.26
2024-01-06T17:31:17.894Z,971.18
2024-01-06T17:36:49.846Z,970.7
2024-01-06T17:42:21.211Z,971.69
2024-01-06T17:47:53.968Z,972.38
2024-01-06T17:53:25.056Z,971.33
2024-01-06T17:58:56.592Z,972.17
2024-01-06T18:04:28.333Z,972.59
2024-01-06T18:10:10.934Z,972.27
2024-01-06T18:15:39.281Z,972.6
2024-01-06T18:21:09.680Z,972.3
2024-01-06T18:26:41.705Z,971.78
2024-01-06T18:32:16.410Z,972.03
2024-01-06T18:37:44.984Z,971.96
2024-01-06T18:43:16.695Z,971.41
2024-01-06T18:48:48.750Z,972.25
2024-01-06T18:54:41.392Z,973.18
2024-01-06T18:59:51.602Z,973.12
2024-01-06T19:05:23.881Z,972.93
2024-01-06T19:11:02.101Z,972.32
2024-01-06T19:16:33.603Z,972.81
2024-01-06T19:22:05.206Z,972.85
2024-01-06T19:27:36.799Z,971.86
2024-01-06T19:33:08.666Z,971.8
2024-01-06T19:38:40.069Z,972.54
2024-01-06T19:44:11.827Z,972.59
2024-01-06T19:49:43.692Z,972.89
2024-01-06T19:55:16.372Z,972.63
2024-01-06T20:00:47.517Z,972.97
2024-01-06T20:06:18.979Z,972.34
2024-01-06T20:11:55.084Z,972.61
2024-01-06T20:17:27.126Z,972.65
2024-01-06T20:22:58.571Z,972.68
2024-01-06T20:28:30.036Z,972.32
2024-01-06T20:34:02.593Z,971.99
2024-01-06T20:39:34.940Z,971.87
2024-01-06T20:45:05.539Z,971.75
2024-01-06T20:50:37.416Z,972.32
2024-01-06T20:56:09.045Z,972.58
2024-01-06T21:01:40.823Z,972.68
2024-01-06T21:07:12.178Z,972.25
2024-01-06T21:12:50.685Z,972.72
2024-01-06T21:18:23.142Z,972.62
2024-01-06T21:23:53.670Z,971.94
2024-01-06T21:29:25.848Z,972.08
2024-01-06T21:34:58.075Z,972.57
2024-01-06T21:40:29.025Z,972.58
2024-01-06T21:46:00.856Z,972.22
2024-01-06T21:51:33.004Z,973.17
2024-01-06T21:57:04.054Z,973.66
2024-01-06T22:02:36.343Z,972.78
2024-01-06T22:08:07.565Z,972.57
2024-01-06T22:13:43.493Z,972.77
2024-01-06T22:19:15.645Z,972.44
2024-01-06T22:24:47.538Z,972.56
2024-01-06T22:30:19.414Z,972.54
2024-01-06T22:35:50.483Z,973.28
2024-01-06T22:41:22.800Z,973.53
2024-01-06T22:46:54.131Z,973.77
2024-01-06T22:52:25.650Z,973.98
2024-01-06T22:57:57.595Z,974.3
2024-01-06T23:03:29.728Z,974.11
2024-01-06T23:09:00.822Z,973.79
2024-01-06T23:14:39.144Z,973.09
2024-01-06T23:20:10.709Z,972.67
2024-01-06T23:25:42.516Z,973.09
2024-01-06T23:31:14.293Z,973.7
2024-01-06T23:36:46.907Z,973.94
2024-01-06T23:42:17.787Z,974.43
2024-01-06T23:47:49.568Z,974.32
2024-01-06T23:53:21.422Z,974.36
2024-01-06T23:58:53.652Z,974.48
